Time;durP1;ratioP1;P1;durP2;ratioP2;P2;SDS_P1;SDS_P2;PMS_P1;PMS_P2;Temp;Humidity;BMP_temperature;BMP_pressure;BME280_temperature;BME280_humidity;BME280_pressure;Samples;Min_cycle;Max_cycle;Signal;HPM_P1;HPM_P2
2022/09/28 00:00:00;;;;;;;3.50;0.70;;;13.00;60.70;;;;;;4983762;28;20061;-61
2022/09/28 00:02:29;;;;;;;2.00;0.50;;;13.00;60.70;;;;;;4981808;28;20050;-56
2022/09/28 00:04:56;;;;;;;1.98;0.80;;;13.00;60.70;;;;;;4982840;28;20065;-60
2022/09/28 00:07:23;;;;;;;1.75;0.50;;;13.00;60.70;;;;;;4984227;28;20053;-61
2022/09/28 00:09:50;;;;;;;1.33;0.50;;;13.00;60.70;;;;;;4980755;28;20550;-61
2022/09/28 00:12:18;;;;;;;2.63;0.70;;;13.00;60.70;;;;;;4981580;28;20122;-61
2022/09/28 00:14:45;;;;;;;0.90;0.50;;;13.00;60.70;;;;;;4983128;28;20058;-59
2022/09/28 00:17:12;;;;;;;0.65;0.50;;;13.00;60.70;;;;;;4981185;28;20058;-61
2022/09/28 00:19:42;;;;;;;2.42;0.70;;;13.00;61.40;;;;;;4983540;28;20062;-61
2022/09/28 00:22:10;;;;;;;1.55;0.50;;;13.00;60.60;;;;;;4980496;28;20065;-60
2022/09/28 00:24:37;;;;;;;2.20;0.80;;;13.00;60.60;;;;;;4981081;28;20506;-59
2022/09/28 00:27:04;;;;;;;1.65;0.60;;;13.00;60.60;;;;;;4982131;28;20062;-60
2022/09/28 00:29:34;;;;;;;0.57;0.47;;;13.00;60.60;;;;;;4978569;28;20632;-59
2022/09/28 00:32:03;;;;;;;2.53;0.70;;;13.00;60.60;;;;;;4979137;28;20054;-60
2022/09/28 00:34:33;;;;;;;5.47;0.77;;;13.00;60.70;;;;;;4981777;28;20050;-59
2022/09/28 00:37:03;;;;;;;0.93;0.50;;;13.00;60.70;;;;;;4979721;28;20372;-60
2022/09/28 00:39:31;;;;;;;1.60;0.57;;;13.00;60.70;;;;;;4982366;28;20074;-60
2022/09/28 00:41:59;;;;;;;3.47;0.77;;;12.90;60.70;;;;;;4983397;28;20513;-60
2022/09/28 00:44:39;;;;;;;2.97;0.70;;;12.90;60.60;;;;;;4979948;28;20073;-58
2022/09/28 00:47:19;;;;;;;0.85;0.47;;;12.90;60.60;;;;;;4980461;28;20418;-56
2022/09/28 00:49:51;;;;;;;1.45;0.40;;;12.90;60.60;;;;;;4964713;28;20046;-60
2022/09/28 00:52:24;;;;;;;1.67;0.55;;;12.90;60.60;;;;;;4976430;28;20051;-60
2022/09/28 00:54:53;;;;;;;0.67;0.33;;;12.90;60.60;;;;;;4977707;28;20065;-61
2022/09/28 00:57:22;;;;;;;1.67;0.50;;;12.80;60.60;;;;;;4978543;28;20508;-60
2022/09/28 00:59:50;;;;;;;1.75;0.43;;;12.90;60.60;;;;;;4981346;28;20054;-59
2022/09/28 01:02:17;;;;;;;0.85;0.30;;;12.80;60.50;;;;;;4978815;28;20407;-60
2022/09/28 01:04:44;;;;;;;0.85;0.40;;;12.80;60.50;;;;;;4983504;28;20495;-61
2022/09/28 01:07:12;;;;;;;1.95;0.50;;;12.80;60.40;;;;;;4982752;28;20345;-60
2022/09/28 01:09:44;;;;;;;2.03;0.45;;;12.80;60.40;;;;;;4983353;28;20074;-60
2022/09/28 01:12:11;;;;;;;0.38;0.30;;;12.80;60.50;;;;;;4981642;28;20058;-60
2022/09/28 01:14:40;;;;;;;2.05;0.60;;;12.80;60.50;;;;;;4982893;28;20518;-60
2022/09/28 01:17:14;;;;;;;1.60;0.50;;;12.80;60.60;;;;;;4979177;28;20054;-60
2022/09/28 01:20:12;;;;;;;4.82;0.50;;;12.80;60.50;;;;;;4978297;28;20058;-57
2022/09/28 01:23:13;;;;;;;0.30;0.20;;;12.80;60.50;;;;;;4982776;28;20058;-59
2022/09/28 01:25:50;;;;;;;1.02;0.50;;;12.80;60.40;;;;;;4976807;28;20467;-59
2022/09/28 01:28:21;;;;;;;1.55;0.40;;;12.80;60.30;;;;;;4982141;28;20399;-58
2022/09/28 01:30:58;;;;;;;1.38;0.45;;;12.80;61.00;;;;;;4978382;28;20054;-59
2022/09/28 01:33:28;;;;;;;1.27;0.63;;;12.80;60.30;;;;;;4973937;28;20050;-60
2022/09/28 01:36:03;;;;;;;0.95;0.40;;;12.80;60.20;;;;;;4980040;28;20061;-59
2022/09/28 01:38:34;;;;;;;1.65;0.43;;;12.80;60.30;;;;;;4976077;28;20521;-60
2022/09/28 01:41:03;;;;;;;1.65;0.30;;;12.80;60.20;;;;;;4980736;28;20065;-60
2022/09/28 01:43:36;;;;;;;0.70;0.43;;;12.70;59.90;;;;;;4980931;28;20050;-61
2022/09/28 01:46:11;;;;;;;1.90;0.53;;;12.70;59.90;;;;;;4979531;28;20047;-59
2022/09/28 01:48:42;;;;;;;0.60;0.47;;;12.70;59.90;;;;;;4980974;28;20422;-59
2022/09/28 01:51:16;;;;;;;1.27;0.30;;;12.70;59.90;;;;;;4985995;28;20062;-59
2022/09/28 01:53:48;;;;;;;1.80;0.47;;;12.60;59.90;;;;;;4984412;28;20059;-59
2022/09/28 01:56:21;;;;;;;1.02;0.40;;;12.60;59.90;;;;;;4983243;28;20058;-59
2022/09/28 01:58:55;;;;;;;0.65;0.30;;;12.60;59.90;;;;;;4983895;28;20054;-59
2022/09/28 02:01:24;;;;;;;;;;;12.60;59.90;;;;;;4983799;28;20061;-59
2022/09/28 02:03:58;;;;;;;0.47;0.20;;;12.60;60.00;;;;;;4984647;28;19926;-49
2022/09/28 02:06:28;;;;;;;;;;;12.60;59.80;;;;;;4984681;28;20073;-56
2022/09/28 02:08:59;;;;;;;0.90;0.47;;;12.60;59.90;;;;;;4985073;28;19926;-51
2022/09/28 02:11:27;;;;;;;1.08;0.30;;;12.60;59.80;;;;;;4985813;28;20066;-51
2022/09/28 02:14:00;;;;;;;1.73;0.40;;;12.60;60.00;;;;;;4984305;28;20594;-50
2022/09/28 02:16:34;;;;;;;0.93;0.32;;;12.60;60.10;;;;;;4981332;28;20495;-50
2022/09/28 02:19:03;;;;;;;0.50;0.30;;;12.60;60.10;;;;;;4985293;28;20058;-49
2022/09/28 02:21:38;;;;;;;0.52;0.30;;;12.60;60.10;;;;;;4985069;28;20061;-49
2022/09/28 02:24:10;;;;;;;1.35;0.40;;;12.50;60.10;;;;;;4984866;28;20048;-56
2022/09/28 02:26:42;;;;;;;0.40;0.20;;;12.60;60.20;;;;;;4982817;28;20498;-49
2022/09/28 02:29:11;;;;;;;0.28;0.20;;;12.60;60.20;;;;;;4981793;28;20058;-56
2022/09/28 02:31:38;;;;;;;1.45;0.40;;;12.60;60.20;;;;;;4984774;28;20404;-50
2022/09/28 02:34:06;;;;;;;0.80;0.30;;;12.60;60.20;;;;;;4984314;28;20501;-48
2022/09/28 02:36:34;;;;;;;0.75;0.25;;;12.60;60.20;;;;;;4981431;28;20426;-53
2022/09/28 02:39:02;;;;;;;6.07;2.05;;;12.60;60.30;;;;;;4985623;28;20054;-51
2022/09/28 02:41:45;;;;;;;6.82;2.13;;;12.60;60.30;;;;;;4984640;28;20054;-51
2022/09/28 02:44:23;;;;;;;3.17;1.48;;;12.60;60.40;;;;;;4984075;28;20054;-47
2022/09/28 02:46:57;;;;;;;3.45;0.73;;;12.60;60.50;;;;;;4979550;28;20066;-48
2022/09/28 02:49:33;;;;;;;1.10;0.50;;;12.60;60.50;;;;;;4985258;28;20065;-52
2022/09/28 02:52:18;;;;;;;5.57;0.52;;;12.60;60.50;;;;;;4984432;28;20058;-50
2022/09/28 02:55:17;;;;;;;0.20;0.20;;;12.60;60.40;;;;;;4984295;28;20058;-52
2022/09/28 02:58:03;;;;;;;0.68;0.20;;;12.60;60.50;;;;;;4984387;28;20513;-49
2022/09/28 03:00:34;;;;;;;1.00;0.40;;;12.60;60.30;;;;;;4981394;28;20057;-52
2022/09/28 03:03:09;;;;;;;1.05;0.38;;;12.60;60.20;;;;;;4983363;28;20430;-47
2022/09/28 03:05:45;;;;;;;2.22;0.20;;;12.60;60.20;;;;;;4982053;28;20061;-48
2022/09/28 03:08:21;;;;;;;1.10;0.50;;;12.60;60.30;;;;;;4984173;28;20399;-51
2022/09/28 03:10:53;;;;;;;2.28;0.70;;;12.60;60.30;;;;;;4983566;28;20062;-49
2022/09/28 03:13:21;;;;;;;4.97;0.60;;;12.50;60.20;;;;;;4983597;28;20418;-54
2022/09/28 03:15:50;;;;;;;3.08;0.50;;;12.60;60.30;;;;;;4977724;28;20054;-55
2022/09/28 03:18:17;;;;;;;1.75;0.30;;;12.50;60.20;;;;;;4984784;28;20410;-50
2022/09/28 03:20:44;;;;;;;1.35;0.47;;;12.50;60.20;;;;;;4982672;28;20073;-48
2022/09/28 03:23:11;;;;;;;0.73;0.40;;;12.50;60.30;;;;;;4984073;28;20069;-49
2022/09/28 03:25:39;;;;;;;2.88;0.32;;;12.50;60.30;;;;;;4981176;28;20502;-50
2022/09/28 03:28:06;;;;;;;1.02;0.50;;;12.50;60.40;;;;;;4984349;28;20490;-51
2022/09/28 03:30:33;;;;;;;1.35;0.45;;;12.50;60.40;;;;;;4982538;28;20050;-47
2022/09/28 03:33:02;;;;;;;4.15;1.98;;;12.50;60.40;;;;;;4983842;28;20069;-49
2022/09/28 03:35:29;;;;;;;2.75;1.48;;;12.50;60.40;;;;;;4979658;28;20409;-51
2022/09/28 03:37:57;;;;;;;2.35;1.17;;;12.50;60.40;;;;;;4983667;28;20050;-49
2022/09/28 03:40:24;;;;;;;2.80;1.40;;;12.50;60.40;;;;;;4983554;28;20418;-49
2022/09/28 03:42:52;;;;;;;2.08;1.15;;;12.50;60.60;;;;;;4984184;28;20065;-49
2022/09/28 03:45:20;;;;;;;5.43;0.80;;;12.50;60.70;;;;;;4979568;28;20134;-55
2022/09/28 03:47:48;;;;;;;2.20;0.60;;;12.50;60.70;;;;;;4983883;28;20525;-55
2022/09/28 03:50:16;;;;;;;1.67;0.60;;;12.50;60.70;;;;;;4983684;28;20051;-49
2022/09/28 03:52:43;;;;;;;2.13;0.50;;;12.50;61.60;;;;;;4984753;28;20495;-47
2022/09/28 03:55:11;;;;;;;2.25;0.75;;;12.50;60.70;;;;;;4980320;28;20057;-49
2022/09/28 03:57:38;;;;;;;1.50;1.20;;;12.50;60.50;;;;;;4984756;28;20054;-51
2022/09/28 04:00:06;;;;;;;6.05;1.00;;;12.50;60.40;;;;;;4980894;28;20574;-50
2022/09/28 04:02:34;;;;;;;2.95;1.00;;;12.50;60.40;;;;;;4983789;28;20054;-50
2022/09/28 04:05:01;;;;;;;6.55;1.15;;;12.40;60.30;;;;;;4981613;28;20050;-47
2022/09/28 04:07:30;;;;;;;3.97;1.27;;;12.40;60.50;;;;;;4983354;28;20050;-48
2022/09/28 04:09:57;;;;;;;3.05;1.30;;;12.40;60.70;;;;;;4983534;28;20058;-51
2022/09/28 04:12:25;;;;;;;5.65;1.50;;;12.30;60.90;;;;;;4980980;28;20134;-55
2022/09/28 04:14:52;;;;;;;3.50;1.40;;;12.30;60.70;;;;;;4980794;28;20046;-47
2022/09/28 04:17:19;;;;;;;5.57;1.80;;;12.30;60.80;;;;;;4972059;28;20061;-49
2022/09/28 04:19:46;;;;;;;1.92;1.23;;;12.30;61.00;;;;;;4982877;28;20491;-52
2022/09/28 04:22:14;;;;;;;8.15;1.63;;;12.20;61.00;;;;;;4980093;28;20054;-48
2022/09/28 04:24:43;;;;;;;5.55;1.42;;;12.20;61.10;;;;;;4983580;28;20047;-49
2022/09/28 04:29:55;;;;;;;3.63;1.10;;;12.20;61.30;;;;;;4983174;28;20061;-48
2022/09/28 04:32:22;;;;;;;2.28;1.38;;;12.20;62.10;;;;;;4975838;28;20062;-51
2022/09/28 04:34:50;;;;;;;4.18;1.50;;;12.20;61.50;;;;;;4977756;28;20517;-46
2022/09/28 04:37:17;;;;;;;5.07;1.50;;;12.20;61.70;;;;;;4981199;28;20529;-49
2022/09/28 04:39:46;;;;;;;3.17;1.20;;;12.20;61.70;;;;;;4980190;28;20061;-47
2022/09/28 04:42:13;;;;;;;3.30;1.25;;;12.20;61.80;;;;;;4975929;28;20392;-51
2022/09/28 04:44:41;;;;;;;2.13;1.38;;;12.20;61.80;;;;;;4981336;28;20130;-52
2022/09/28 04:47:08;;;;;;;5.22;1.60;;;12.20;61.90;;;;;;4978708;28;20525;-50
2022/09/28 04:49:35;;;;;;;23.13;8.70;;;12.10;62.00;;;;;;4981435;28;20058;-55
2022/09/28 04:52:04;;;;;;;4.75;2.28;;;12.20;62.10;;;;;;4979874;28;20065;-52
2022/09/28 04:54:31;;;;;;;3.08;1.50;;;12.20;62.30;;;;;;4982490;28;20419;-51
2022/09/28 04:57:00;;;;;;;2.55;1.60;;;12.20;62.20;;;;;;4981777;28;20058;-52
2022/09/28 04:59:27;;;;;;;5.70;1.30;;;12.20;62.20;;;;;;4979867;28;20068;-56
2022/09/28 05:01:54;;;;;;;5.05;1.23;;;12.20;62.90;;;;;;4981117;28;20062;-54
2022/09/28 05:04:22;;;;;;;5.10;1.10;;;12.20;62.20;;;;;;4979865;28;20054;-52
2022/09/28 05:06:49;;;;;;;1.70;0.90;;;12.20;62.20;;;;;;4979951;28;20050;-55
2022/09/28 05:09:16;;;;;;;2.42;0.98;;;12.20;62.20;;;;;;4981422;28;20368;-54
2022/09/28 05:11:43;;;;;;;1.40;0.90;;;12.20;62.00;;;;;;4979623;28;20054;-48
2022/09/28 05:14:12;;;;;;;3.17;1.42;;;12.20;61.90;;;;;;4982536;28;20380;-50
2022/09/28 05:16:39;;;;;;;3.33;1.20;;;12.20;61.90;;;;;;4980704;28;20058;-51
2022/09/28 05:19:06;;;;;;;2.10;1.27;;;12.20;61.80;;;;;;4980230;28;20079;-47
2022/09/28 05:21:34;;;;;;;3.55;1.15;;;12.20;61.80;;;;;;4982660;28;20061;-49
2022/09/28 05:24:06;;;;;;;6.60;1.50;;;12.20;61.80;;;;;;4981792;28;20062;-49
2022/09/28 05:26:33;;;;;;;2.20;1.38;;;12.20;61.70;;;;;;4984231;28;20050;-52
2022/09/28 05:29:00;;;;;;;2.50;1.45;;;12.20;61.70;;;;;;4982103;28;20066;-54
2022/09/28 05:31:31;;;;;;;2.92;1.52;;;12.20;61.70;;;;;;4980319;28;20061;-50
2022/09/28 05:33:58;;;;;;;4.20;1.20;;;12.20;61.70;;;;;;4981105;28;20057;-51
2022/09/28 05:36:26;;;;;;;6.15;2.28;;;12.20;61.70;;;;;;4982310;28;20498;-48
2022/09/28 05:38:53;;;;;;;2.90;1.30;;;12.10;61.70;;;;;;4980539;28;20371;-56
2022/09/28 05:41:21;;;;;;;2.35;1.25;;;12.10;61.70;;;;;;4984461;28;20054;-56
2022/09/28 05:43:50;;;;;;;4.03;1.52;;;12.10;61.80;;;;;;4982125;28;20058;-55
2022/09/28 05:46:18;;;;;;;1.90;1.25;;;12.20;62.00;;;;;;4978104;28;20077;-51
2022/09/28 05:48:47;;;;;;;3.15;1.50;;;12.20;61.90;;;;;;4982986;28;20050;-53
2022/09/28 05:51:14;;;;;;;3.63;1.70;;;12.10;61.90;;;;;;4985364;28;20407;-47
2022/09/28 05:53:41;;;;;;;6.97;2.22;;;12.10;61.80;;;;;;4982103;28;20775;-48
2022/09/28 05:56:09;;;;;;;4.00;1.70;;;12.10;61.80;;;;;;4976932;28;20046;-50
2022/09/28 05:58:36;;;;;;;5.45;2.20;;;12.10;61.70;;;;;;4984603;28;20050;-49
2022/09/28 06:01:03;;;;;;;2.72;1.73;;;12.10;61.80;;;;;;4983755;28;20054;-49
2022/09/28 06:03:30;;;;;;;4.63;1.80;;;12.10;62.00;;;;;;4980577;28;20058;-50
2022/09/28 06:06:01;;;;;;;8.65;2.00;;;12.10;62.00;;;;;;4985606;28;20062;-51
2022/09/28 06:08:31;;;;;;;1.85;1.42;;;12.10;62.00;;;;;;4985786;28;20054;-52
2022/09/28 06:11:00;;;;;;;4.07;2.00;;;12.10;62.00;;;;;;4984055;28;20529;-51
2022/09/28 06:13:27;;;;;;;2.65;1.60;;;12.10;62.00;;;;;;4984043;28;20054;-49
2022/09/28 06:15:54;;;;;;;4.00;2.03;;;12.10;62.10;;;;;;4983045;28;20344;-48
2022/09/28 06:18:22;;;;;;;4.35;1.83;;;12.10;62.10;;;;;;4985476;28;20069;-48
2022/09/28 06:20:49;;;;;;;2.60;1.70;;;12.10;62.20;;;;;;4984470;28;20054;-51
2022/09/28 06:23:18;;;;;;;8.13;2.30;;;12.10;62.20;;;;;;4985255;28;20073;-49
2022/09/28 06:25:45;;;;;;;3.10;1.77;;;12.10;62.10;;;;;;4982315;28;20061;-52
2022/09/28 06:28:13;;;;;;;5.53;1.95;;;12.10;62.10;;;;;;4982903;28;20054;-52
2022/09/28 06:30:42;;;;;;;3.58;1.80;;;12.10;62.20;;;;;;4982929;28;20061;-52
2022/09/28 06:33:12;;;;;;;2.90;1.65;;;12.10;62.20;;;;;;4984839;28;20073;-52
2022/09/28 06:35:39;;;;;;;2.78;1.85;;;12.10;62.30;;;;;;4985187;28;20050;-54
2022/09/28 06:38:07;;;;;;;4.65;1.75;;;12.10;62.50;;;;;;4985443;28;20065;-55
2022/09/28 06:40:36;;;;;;;4.72;1.98;;;12.20;62.60;;;;;;4982665;28;20054;-48
2022/09/28 06:43:08;;;;;;;3.30;1.70;;;12.10;62.50;;;;;;4982308;28;20069;-51
2022/09/28 06:45:37;;;;;;;6.15;1.95;;;12.20;62.60;;;;;;4982238;28;20365;-50
2022/09/28 06:48:05;;;;;;;6.32;2.20;;;12.20;62.60;;;;;;4984664;28;20058;-53
2022/09/28 06:50:35;;;;;;;2.55;1.88;;;12.20;62.60;;;;;;4984989;28;20058;-48
2022/09/28 06:53:05;;;;;;;4.65;2.40;;;12.20;62.40;;;;;;4982298;28;20049;-45
2022/09/28 06:55:33;;;;;;;4.22;2.15;;;12.20;62.40;;;;;;4980329;28;20062;-54
2022/09/28 06:58:03;;;;;;;4.07;1.88;;;12.30;62.60;;;;;;4981110;28;20059;-52
2022/09/28 07:00:33;;;;;;;9.23;2.33;;;12.30;62.50;;;;;;4978946;28;20050;-55
2022/09/28 07:03:01;;;;;;;4.57;2.60;;;12.30;62.50;;;;;;4981406;28;20054;-52
2022/09/28 07:05:28;;;;;;;2.75;1.70;;;12.30;62.60;;;;;;4981121;28;20050;-51
2022/09/28 07:07:56;;;;;;;4.80;2.10;;;12.30;62.50;;;;;;4983084;28;20054;-48
2022/09/28 07:10:24;;;;;;;2.63;1.85;;;12.30;62.50;;;;;;4982590;28;20062;-47
2022/09/28 07:12:52;;;;;;;3.28;1.83;;;12.30;62.40;;;;;;4981592;28;20050;-48
2022/09/28 07:15:21;;;;;;;9.52;1.40;;;12.30;62.50;;;;;;4983418;28;20069;-51
2022/09/28 07:17:48;;;;;;;3.45;1.95;;;12.30;62.70;;;;;;4984700;28;20059;-48
2022/09/28 07:20:16;;;;;;;6.10;1.90;;;12.40;62.70;;;;;;4984929;28;20066;-51
2022/09/28 07:22:43;;;;;;;2.88;1.80;;;12.40;62.60;;;;;;4984164;28;20062;-46
2022/09/28 07:25:12;;;;;;;6.13;2.28;;;12.40;62.70;;;;;;4982790;28;20069;-53
2022/09/28 07:27:39;;;;;;;7.43;1.88;;;12.40;62.60;;;;;;4982535;28;20050;-54
2022/09/28 07:30:08;;;;;;;4.38;2.17;;;12.40;62.60;;;;;;4981952;28;20058;-51
2022/09/28 07:32:36;;;;;;;5.65;2.13;;;12.40;62.20;;;;;;4981221;28;20058;-50
2022/09/28 07:35:06;;;;;;;4.72;2.33;;;12.30;62.00;;;;;;4981920;28;20057;-46
2022/09/28 07:37:34;;;;;;;5.70;2.08;;;12.30;62.10;;;;;;4980681;28;20046;-47
2022/09/28 07:42:46;;;;;;;4.90;2.08;;;12.40;62.30;;;;;;4986807;28;20411;-53
2022/09/28 07:45:14;;;;;;;5.18;2.28;;;12.40;62.40;;;;;;4978922;28;20388;-51
2022/09/28 07:47:42;;;;;;;5.82;2.00;;;12.40;62.50;;;;;;4979886;28;20501;-49
2022/09/28 07:50:10;;;;;;;4.70;1.67;;;12.40;62.40;;;;;;4979489;28;20058;-49
2022/09/28 07:52:37;;;;;;;3.97;1.88;;;12.40;62.40;;;;;;4982962;28;20434;-48
2022/09/28 07:55:05;;;;;;;3.78;1.60;;;12.50;62.20;;;;;;4973543;28;20061;-50
2022/09/28 07:57:33;;;;;;;7.28;1.80;;;12.40;62.30;;;;;;4974634;28;20049;-55
2022/09/28 08:00:03;;;;;;;4.35;1.70;;;12.50;62.20;;;;;;4963710;28;20066;-49
2022/09/28 08:02:32;;;;;;;4.38;1.70;;;12.50;62.20;;;;;;4979649;28;20050;-49
2022/09/28 08:05:01;;;;;;;2.92;1.75;;;12.50;62.50;;;;;;4981087;28;20058;-53
2022/09/28 08:07:28;;;;;;;3.92;1.75;;;12.60;62.60;;;;;;4983780;28;20049;-49
2022/09/28 08:09:55;;;;;;;5.38;2.08;;;12.50;62.50;;;;;;4982499;28;20046;-49
2022/09/28 08:12:22;;;;;;;2.95;1.67;;;12.60;62.40;;;;;;4980835;28;20512;-48
2022/09/28 08:14:51;;;;;;;7.00;1.90;;;12.60;62.20;;;;;;4978136;28;20053;-51
2022/09/28 08:17:18;;;;;;;3.72;1.70;;;12.60;62.20;;;;;;4960980;28;20057;-50
2022/09/28 08:22:32;;;;;;;2.58;1.30;;;12.70;62.50;;;;;;4990016;28;20414;-48
2022/09/28 08:24:59;;;;;;;5.00;2.00;;;12.70;62.30;;;;;;4978641;28;20046;-50
2022/09/28 08:27:26;;;;;;;4.38;1.90;;;12.70;62.10;;;;;;4983361;28;20486;-48
2022/09/28 08:29:53;;;;;;;1.65;1.15;;;12.70;61.80;;;;;;4980511;28;20054;-51
2022/09/28 08:32:21;;;;;;;3.45;1.55;;;12.70;61.90;;;;;;4980402;28;20065;-47
2022/09/28 08:34:48;;;;;;;5.28;1.95;;;12.80;62.00;;;;;;4977633;28;20058;-52
2022/09/28 08:37:15;;;;;;;3.58;1.40;;;12.80;61.80;;;;;;4980696;28;20058;-50
2022/09/28 08:39:44;;;;;;;4.03;1.48;;;12.80;61.80;;;;;;4982130;28;20062;-47
2022/09/28 08:42:34;;;;;;;3.88;1.40;;;12.80;61.80;;;;;;4980613;28;20046;-46
2022/09/28 08:45:07;;;;;;;3.97;1.60;;;12.80;61.70;;;;;;4962308;28;20514;-53
2022/09/28 08:50:29;;;;;;;4.40;1.40;;;12.90;61.70;;;;;;4986360;28;20061;-48
2022/09/28 08:53:03;;;;;;;4.10;1.80;;;12.90;61.40;;;;;;4980048;28;20050;-51
2022/09/28 08:55:35;;;;;;;3.33;1.58;;;12.90;61.30;;;;;;4978907;28;20371;-50
2022/09/28 08:58:10;;;;;;;2.75;1.40;;;12.90;61.00;;;;;;4983239;28;20055;-52
2022/09/28 09:00:46;;;;;;;2.90;1.40;;;12.90;61.20;;;;;;4980753;28;20054;-49
2022/09/28 09:03:17;;;;;;;2.55;1.20;;;12.90;61.70;;;;;;4985687;28;20050;-50
2022/09/28 09:05:54;;;;;;;4.20;1.40;;;13.00;62.10;;;;;;4982509;28;20054;-53
2022/09/28 09:08:33;;;;;;;5.68;1.42;;;13.00;62.10;;;;;;4984321;28;20050;-54
2022/09/28 09:11:15;;;;;;;3.78;1.27;;;13.10;62.20;;;;;;4985283;28;20054;-56
2022/09/28 09:13:56;;;;;;;9.13;1.48;;;13.10;61.90;;;;;;4981843;28;20058;-46
2022/09/28 09:16:32;;;;;;;3.50;1.20;;;13.20;61.40;;;;;;4981028;28;20058;-48
2022/09/28 09:19:06;;;;;;;2.78;1.00;;;13.20;61.10;;;;;;4986481;28;20066;-53
2022/09/28 09:21:41;;;;;;;5.00;0.82;;;13.20;60.80;;;;;;4984086;28;20085;-50
2022/09/28 09:24:26;;;;;;;3.72;1.08;;;13.20;60.60;;;;;;4975185;28;20057;-53
2022/09/28 09:27:05;;;;;;;2.28;1.10;;;13.20;60.60;;;;;;4983450;28;20134;-49
2022/09/28 09:29:51;;;;;;;1.83;0.63;;;13.20;60.50;;;;;;4984323;28;20502;-49
2022/09/28 09:32:46;;;;;;;1.95;0.80;;;13.30;60.70;;;;;;4984687;28;20054;-50
2022/09/28 09:35:29;;;;;;;3.67;0.77;;;13.30;60.00;;;;;;4981996;28;20061;-49
2022/09/28 09:38:16;;;;;;;0.93;0.63;;;13.30;59.80;;;;;;4985541;28;20046;-49
2022/09/28 09:40:57;;;;;;;3.70;0.80;;;13.30;59.80;;;;;;4981098;28;20433;-50
2022/09/28 09:43:41;;;;;;;5.63;0.95;;;13.30;59.60;;;;;;4982251;28;20050;-53
2022/09/28 09:46:15;;;;;;;2.30;0.85;;;13.30;58.90;;;;;;4977844;28;20050;-51
2022/09/28 09:48:48;;;;;;;3.83;0.50;;;13.30;59.00;;;;;;4958500;28;20057;-53
2022/09/28 09:51:22;;;;;;;3.50;0.70;;;13.40;59.40;;;;;;4982949;28;20050;-49
2022/09/28 09:53:58;;;;;;;2.88;0.60;;;13.40;59.20;;;;;;4986393;28;21475;-51
2022/09/28 09:56:33;;;;;;;3.65;0.82;;;13.40;58.70;;;;;;4985624;28;20058;-49
2022/09/28 09:59:07;;;;;;;2.42;0.90;;;13.30;59.00;;;;;;4985142;28;20058;-49
2022/09/28 10:01:38;;;;;;;2.67;1.00;;;13.30;58.80;;;;;;4986085;28;20062;-51
2022/09/28 10:04:11;;;;;;;1.77;0.70;;;13.30;58.70;;;;;;4984133;28;20414;-54
2022/09/28 10:06:41;;;;;;;1.23;0.60;;;13.30;58.80;;;;;;4985296;28;20061;-48
2022/09/28 10:09:13;;;;;;;1.20;0.70;;;13.40;59.30;;;;;;4986263;28;20429;-46
2022/09/28 10:11:44;;;;;;;1.15;0.57;;;13.40;59.20;;;;;;4983758;28;20530;-45
2022/09/28 10:14:15;;;;;;;2.67;0.57;;;13.40;59.00;;;;;;4984950;28;20058;-49
2022/09/28 10:16:44;;;;;;;1.20;0.50;;;13.40;58.90;;;;;;4985403;28;20066;-48
2022/09/28 10:19:12;;;;;;;5.25;1.15;;;13.40;58.90;;;;;;4981464;28;20066;-51
2022/09/28 10:21:41;;;;;;;5.82;0.80;;;13.40;58.10;;;;;;4986401;28;20080;-47
2022/09/28 10:24:16;;;;;;;1.65;0.63;;;13.50;58.20;;;;;;4986085;28;20054;-51
2022/09/28 10:26:48;;;;;;;1.23;0.60;;;13.50;58.50;;;;;;4985348;28;20069;-45
2022/09/28 10:29:20;;;;;;;1.58;0.40;;;13.50;58.80;;;;;;4984132;28;20050;-48
2022/09/28 10:31:48;;;;;;;3.20;0.63;;;13.60;58.60;;;;;;4984097;28;20054;-47
2022/09/28 10:34:18;;;;;;;3.13;0.50;;;13.60;58.70;;;;;;4985375;28;20061;-47
2022/09/28 10:36:54;;;;;;;2.85;0.50;;;13.70;58.60;;;;;;4983821;28;20517;-49
2022/09/28 10:39:27;;;;;;;1.80;0.60;;;13.70;58.30;;;;;;4985647;28;20073;-49
2022/09/28 10:41:55;;;;;;;1.42;0.43;;;13.80;58.70;;;;;;4982105;28;20614;-49
2022/09/28 10:44:23;;;;;;;3.30;0.52;;;13.80;58.30;;;;;;4985027;28;20058;-48
2022/09/28 10:46:56;;;;;;;6.72;0.95;;;13.90;57.90;;;;;;4982226;28;20058;-51
2022/09/28 10:49:25;;;;;;;3.30;0.53;;;13.90;57.40;;;;;;4985294;28;20510;-49
2022/09/28 10:51:55;;;;;;;2.53;0.50;;;13.90;57.90;;;;;;4985787;28;20379;-45
2022/09/28 10:54:24;;;;;;;2.03;0.40;;;14.00;57.70;;;;;;4983799;28;20058;-55
2022/09/28 10:56:53;;;;;;;3.45;0.68;;;14.00;57.40;;;;;;4982598;28;20062;-48
2022/09/28 10:59:36;;;;;;;1.80;0.80;;;14.10;57.60;;;;;;4983694;28;20065;-46
2022/09/28 11:02:13;;;;;;;2.88;0.70;;;14.10;57.80;;;;;;4984679;28;20238;-49
2022/09/28 11:04:42;;;;;;;6.43;0.73;;;14.10;57.00;;;;;;4981467;28;20055;-50
2022/09/28 11:07:17;;;;;;;2.22;0.60;;;14.20;56.30;;;;;;4983616;28;20054;-45
2022/09/28 11:09:48;;;;;;;2.28;0.40;;;14.20;56.40;;;;;;4985443;28;20486;-46
2022/09/28 11:12:18;;;;;;;3.15;0.55;;;14.20;56.30;;;;;;4985025;28;20050;-47
2022/09/28 11:14:51;;;;;;;1.95;0.50;;;14.20;55.70;;;;;;4982838;28;20054;-49
2022/09/28 11:17:26;;;;;;;1.95;0.52;;;14.20;55.70;;;;;;4983526;28;20050;-47
2022/09/28 11:19:54;;;;;;;6.75;1.05;;;14.30;55.70;;;;;;4983886;28;20062;-54
2022/09/28 11:22:29;;;;;;;1.40;0.50;;;14.30;55.80;;;;;;4984159;28;20407;-46
2022/09/28 11:25:22;;;;;;;4.53;1.15;;;14.30;55.50;;;;;;4981475;28;20058;-45
2022/09/28 11:27:58;;;;;;;2.42;0.75;;;14.40;56.00;;;;;;4983398;28;20058;-46
2022/09/28 11:30:30;;;;;;;3.47;0.70;;;14.40;55.90;;;;;;4983546;28;20669;-46
2022/09/28 11:33:02;;;;;;;3.38;0.50;;;14.40;55.90;;;;;;4984619;28;20053;-47
2022/09/28 11:35:41;;;;;;;1.17;0.60;;;14.40;55.50;;;;;;4979456;28;20061;-48
2022/09/28 11:38:20;;;;;;;5.72;0.65;;;14.50;55.90;;;;;;4980737;28;20046;-45
2022/09/28 11:40:59;;;;;;;2.50;0.75;;;14.50;56.10;;;;;;4983155;28;20345;-45
2022/09/28 11:43:43;;;;;;;2.10;0.65;;;14.60;55.50;;;;;;4984186;28;20054;-48
2022/09/28 11:46:21;;;;;;;3.90;0.73;;;14.60;55.40;;;;;;4982483;28;20061;-48
2022/09/28 11:48:54;;;;;;;2.13;0.80;;;14.60;54.70;;;;;;4983626;28;20061;-46
2022/09/28 11:51:24;;;;;;;2.83;0.90;;;14.60;54.10;;;;;;4984142;28;20054;-46
2022/09/28 11:53:56;;;;;;;2.80;0.80;;;14.60;54.30;;;;;;4984363;28;20513;-47
2022/09/28 11:56:32;;;;;;;2.22;0.70;;;14.60;54.20;;;;;;4982026;28;20054;-47
2022/09/28 11:59:03;;;;;;;2.85;0.60;;;14.60;54.90;;;;;;4983286;28;20050;-49
2022/09/28 12:01:38;;;;;;;1.95;0.73;;;14.60;55.10;;;;;;4983705;28;20058;-46
2022/09/28 12:04:11;;;;;;;6.38;0.80;;;14.60;54.80;;;;;;4983369;28;20059;-47
2022/09/28 12:06:45;;;;;;;3.40;0.70;;;14.60;54.80;;;;;;4981534;28;20065;-47
2022/09/28 12:09:19;;;;;;;0.85;0.43;;;14.60;54.80;;;;;;4982745;28;20050;-48
2022/09/28 12:11:51;;;;;;;2.58;0.57;;;14.70;55.20;;;;;;4983804;28;20081;-46
2022/09/28 12:14:21;;;;;;;2.25;0.70;;;14.70;55.20;;;;;;4982387;28;20054;-46
2022/09/28 12:16:54;;;;;;;2.85;0.57;;;14.80;55.50;;;;;;4980942;28;20076;-47
2022/09/28 12:19:28;;;;;;;1.35;0.50;;;14.80;55.20;;;;;;4982045;28;20521;-48
2022/09/28 12:21:59;;;;;;;4.68;0.70;;;14.90;54.80;;;;;;4983069;28;20061;-46
2022/09/28 12:24:30;;;;;;;1.20;0.60;;;15.00;54.40;;;;;;4984318;28;20414;-50
2022/09/28 12:27:02;;;;;;;2.85;0.80;;;15.00;54.30;;;;;;4982505;28;20050;-52
2022/09/28 12:29:37;;;;;;;2.92;0.80;;;15.00;53.70;;;;;;4980701;28;20061;-46
2022/09/28 12:32:14;;;;;;;3.80;0.65;;;15.00;53.90;;;;;;4982725;28;20062;-51
2022/09/28 12:34:42;;;;;;;2.65;0.80;;;15.10;53.90;;;;;;4981548;28;20058;-50
2022/09/28 12:37:23;;;;;;;3.17;0.70;;;15.10;54.00;;;;;;4983093;28;20073;-44
2022/09/28 12:40:11;;;;;;;1.67;0.70;;;15.10;53.80;;;;;;4982917;28;20062;-49
2022/09/28 12:42:55;;;;;;;1.70;0.88;;;15.10;54.20;;;;;;4983914;28;20081;-46
2022/09/28 12:45:43;;;;;;;1.58;0.40;;;15.10;54.00;;;;;;4979761;28;20051;-48
2022/09/28 12:48:35;;;;;;;2.30;0.88;;;15.10;53.80;;;;;;4983185;28;20050;-48
2022/09/28 12:51:16;;;;;;;3.38;0.65;;;15.20;54.20;;;;;;4984462;28;20065;-47
2022/09/28 12:54:05;;;;;;;1.77;0.43;;;15.20;53.80;;;;;;4982537;28;20066;-48
2022/09/28 12:56:40;;;;;;;2.78;0.82;;;15.20;53.30;;;;;;4979615;28;20083;-52
2022/09/28 12:59:18;;;;;;;2.63;0.60;;;15.20;53.50;;;;;;4982834;28;20065;-48
2022/09/28 13:02:20;;;;;;;1.58;0.50;;;15.20;53.40;;;;;;4982348;28;20054;-46
2022/09/28 13:05:09;;;;;;;2.17;0.80;;;15.30;53.80;;;;;;4981875;28;20054;-52
2022/09/28 13:07:46;;;;;;;2.13;0.68;;;15.30;53.80;;;;;;4982010;28;20059;-48
2022/09/28 13:10:22;;;;;;;1.40;0.60;;;15.40;53.90;;;;;;4982645;28;20054;-46
2022/09/28 13:13:06;;;;;;;1.42;0.50;;;15.40;53.80;;;;;;4980904;28;20081;-48
2022/09/28 13:15:41;;;;;;;1.60;0.60;;;15.40;53.80;;;;;;4978203;28;20050;-48
2022/09/28 13:18:13;;;;;;;1.30;0.70;;;15.40;53.50;;;;;;4979569;28;20858;-48
2022/09/28 13:20:58;;;;;;;1.98;0.70;;;15.40;53.60;;;;;;4981282;28;20058;-50